createdAt,value
2018-10-11T00:00:00.551Z,78.15
2018-10-11T00:01:05.852Z,77.08
2018-10-11T00:02:10.012Z,77.90
2018-10-11T00:03:14.138Z,69.92
2018-10-11T00:04:18.152Z,77.30
2018-10-11T00:05:36.274Z,73.12
2018-10-11T00:06:45.956Z,81.45
2018-10-11T00:07:50.166Z,73.92
2018-10-11T00:08:54.258Z,82.65
2018-10-11T00:09:58.266Z,76.55
2018-10-11T00:11:02.273Z,85.62
2018-10-11T00:12:11.506Z,82.90
2018-10-11T00:13:22.180Z,79.65
2018-10-11T00:14:26.991Z,84.65
2018-10-11T00:15:37.000Z,79.40
2018-10-11T00:16:40.945Z,74.60
2018-10-11T00:17:44.999Z,77.30
2018-10-11T00:18:49.030Z,80.55
2018-10-11T00:19:53.235Z,76.15
2018-10-11T00:20:57.536Z,80.03
2018-10-11T00:22:01.539Z,75.83
2018-10-11T00:23:05.717Z,80.30
2018-10-11T00:24:09.875Z,76.00
2018-10-11T00:25:13.960Z,77.95
2018-10-11T00:26:18.026Z,74.80
2018-10-11T00:27:21.983Z,90.07
2018-10-11T00:28:26.003Z,94.97
2018-10-11T00:29:35.755Z,86.72
2018-10-11T00:30:39.921Z,84.47
2018-10-11T00:31:43.935Z,87.08
2018-10-11T00:32:47.902Z,85.70
2018-10-11T00:33:51.859Z,86.25
2018-10-11T00:34:55.792Z,82.12
2018-10-11T00:35:59.831Z,82.20
2018-10-11T00:37:09.696Z,77.92
2018-10-11T00:38:13.677Z,79.90
2018-10-11T00:39:17.615Z,74.82
2018-10-11T00:40:21.660Z,90.92
2018-10-11T00:41:26.425Z,90.30
2018-10-11T00:42:30.378Z,82.30
2018-10-11T00:43:34.913Z,89.35
2018-10-11T00:44:38.932Z,82.30
2018-10-11T00:45:42.863Z,72.22
2018-10-11T00:46:48.071Z,73.35
2018-10-11T00:47:52.025Z,82.47
2018-10-11T00:48:56.871Z,76.15
2018-10-11T00:50:00.844Z,89.55
2018-10-11T00:51:05.018Z,79.65
2018-10-11T00:52:09.661Z,78.57
2018-10-11T00:53:13.576Z,67.25
2018-10-11T00:54:17.707Z,75.62
2018-10-11T00:55:21.739Z,74.75
2018-10-11T00:56:25.726Z,81.67
2018-10-11T00:57:29.813Z,67.82
2018-10-11T00:58:34.126Z,76.90
2018-10-11T00:59:38.103Z,70.90
2018-10-11T01:00:42.099Z,75.83
2018-10-11T01:01:46.290Z,72.92
2018-10-11T01:02:50.288Z,64.75
2018-10-11T01:03:54.810Z,66.90
2018-10-11T01:04:58.774Z,65.85
2018-10-11T01:06:03.049Z,69.92
2018-10-11T01:07:07.074Z,68.70
2018-10-11T01:08:11.111Z,63.42
2018-10-11T01:09:15.632Z,72.78
2018-10-11T01:10:19.879Z,70.17
2018-10-11T01:11:23.943Z,73.70
2018-10-11T01:12:27.960Z,70.12
2018-10-11T01:13:32.009Z,72.82
2018-10-11T01:14:35.962Z,71.02
2018-10-11T01:15:40.602Z,86.12
2018-10-11T01:16:44.657Z,77.12
2018-10-11T01:17:48.730Z,70.85
2018-10-11T01:18:53.084Z,78.02
2018-10-11T01:19:57.307Z,75.45
2018-10-11T01:21:01.363Z,70.10
2018-10-11T01:22:05.321Z,70.87
2018-10-11T01:23:09.298Z,62.73
2018-10-11T01:24:13.344Z,75.62
2018-10-11T01:25:17.396Z,74.20
2018-10-11T01:26:21.402Z,79.37
2018-10-11T01:27:28.327Z,81.95
2018-10-11T01:28:32.331Z,83.37
2018-10-11T01:31:49.875Z,80.62
2018-10-11T01:32:53.849Z,78.40
2018-10-11T01:33:58.067Z,77.27
2018-10-11T01:35:02.442Z,82.82
2018-10-11T01:36:06.756Z,84.75
2018-10-11T01:37:10.683Z,80.03
2018-10-11T01:38:14.695Z,80.90
2018-10-11T01:39:18.804Z,85.12
2018-10-11T01:40:26.295Z,77.10
2018-10-11T01:41:30.342Z,82.53
2018-10-11T01:42:34.434Z,75.57
2018-10-11T01:43:38.710Z,64.72
2018-10-11T01:44:43.139Z,75.65
2018-10-11T01:45:47.403Z,80.20
2018-10-11T01:46:51.335Z,81.72
2018-10-11T01:47:55.273Z,77.75
2018-10-11T01:48:59.702Z,77.10
2018-10-11T01:50:03.735Z,74.77
2018-10-11T01:51:07.886Z,85.03
2018-10-11T01:52:12.247Z,75.78
2018-10-11T01:53:16.324Z,85.75
2018-10-11T01:54:20.358Z,86.15
2018-10-11T01:55:25.313Z,72.82
2018-10-11T01:56:33.712Z,79.35
2018-10-11T01:57:37.743Z,82.90
2018-10-11T01:58:41.787Z,86.20
2018-10-11T01:59:45.795Z,75.47
2018-10-11T02:00:49.802Z,68.10
2018-10-11T02:01:53.906Z,71.12
2018-10-11T02:02:59.248Z,76.85
2018-10-11T02:04:03.547Z,77.22
2018-10-11T02:05:07.975Z,70.72
2018-10-11T02:06:12.086Z,76.37
2018-10-11T02:07:16.100Z,75.97
2018-10-11T02:08:20.036Z,72.20
2018-10-11T02:09:26.488Z,76.22
2018-10-11T02:10:30.596Z,76.97
2018-10-11T02:11:34.523Z,77.80
2018-10-11T02:12:38.520Z,78.57
2018-10-11T02:13:42.596Z,75.30
2018-10-11T02:14:46.663Z,77.67
2018-10-11T02:15:50.763Z,76.05
2018-10-11T02:16:57.000Z,75.70
2018-10-11T02:18:01.043Z,88.45
2018-10-11T02:19:05.076Z,79.40
2018-10-11T02:20:09.160Z,83.00
2018-10-11T02:21:13.518Z,72.80
2018-10-11T02:22:17.855Z,77.20
2018-10-11T02:23:21.947Z,68.65
2018-10-11T02:24:26.174Z,78.83
2018-10-11T02:25:30.239Z,69.05
2018-10-11T02:26:34.532Z,76.65
2018-10-11T02:27:38.583Z,76.70
2018-10-11T02:28:42.582Z,76.45
2018-10-11T02:29:46.660Z,75.22
2018-10-11T02:30:50.674Z,71.57
2018-10-11T02:31:54.859Z,73.37
2018-10-11T02:32:58.827Z,73.67
2018-10-11T02:34:02.888Z,70.70
2018-10-11T02:35:12.621Z,75.62
2018-10-11T02:36:16.576Z,67.30
2018-10-11T02:37:20.507Z,74.07
2018-10-11T02:38:31.695Z,77.08
2018-10-11T02:39:35.990Z,77.15
2018-10-11T02:40:40.289Z,77.27
2018-10-11T02:41:44.196Z,73.52
2018-10-11T02:42:48.161Z,76.12
2018-10-11T02:43:52.105Z,77.37
2018-10-11T02:44:56.215Z,74.40
2018-10-11T02:46:00.714Z,83.35
2018-10-11T02:47:04.660Z,74.32
2018-10-11T02:48:09.079Z,74.58
2018-10-11T02:49:13.107Z,84.55
2018-10-11T02:50:17.176Z,85.83
2018-10-11T02:51:21.164Z,78.45
2018-10-11T02:52:25.276Z,75.65
2018-10-11T02:53:29.468Z,81.40
2018-10-11T02:54:33.679Z,77.65
2018-10-11T02:55:37.883Z,84.07
2018-10-11T02:56:42.407Z,80.03
2018-10-11T02:57:57.337Z,76.05
2018-10-11T02:59:12.227Z,80.12
2018-10-11T03:00:16.426Z,82.27
2018-10-11T03:01:20.851Z,79.12
2018-10-11T03:02:25.524Z,83.35
2018-10-11T03:03:30.281Z,81.25
2018-10-11T03:04:35.681Z,79.80
2018-10-11T03:05:46.617Z,83.78
2018-10-11T03:06:52.053Z,78.25
2018-10-11T03:07:56.378Z,76.40
2018-10-11T03:09:00.794Z,76.95
2018-10-11T03:10:09.508Z,75.45
2018-10-11T03:11:15.463Z,73.02
2018-10-11T03:12:20.422Z,83.22
2018-10-11T03:13:24.384Z,108.57
2018-10-11T03:14:34.514Z,106.95
2018-10-11T03:15:38.826Z,92.92
2018-10-11T03:16:43.000Z,86.82
2018-10-11T03:17:47.096Z,86.32
2018-10-11T03:18:51.240Z,93.70
2018-10-11T03:19:57.104Z,90.85
2018-10-11T03:21:01.442Z,85.65
2018-10-11T03:22:05.489Z,83.45
2018-10-11T03:23:10.338Z,87.80
2018-10-11T03:24:14.389Z,99.07
2018-10-11T03:25:18.374Z,93.07
2018-10-11T03:26:22.785Z,86.60
2018-10-11T03:27:26.823Z,78.17
2018-10-11T03:28:30.902Z,85.83
2018-10-11T03:29:34.875Z,89.20
2018-10-11T03:30:39.000Z,88.97
2018-10-11T03:31:42.972Z,95.85
2018-10-11T03:32:46.974Z,81.35
2018-10-11T03:33:50.991Z,88.27
2018-10-11T03:34:55.069Z,93.52
2018-10-11T03:35:59.127Z,94.28
2018-10-11T03:37:03.194Z,86.37
2018-10-11T03:38:07.307Z,98.97
2018-10-11T03:39:11.419Z,93.05
2018-10-11T03:40:15.339Z,97.37
2018-10-11T03:41:20.352Z,117.97
2018-10-11T03:42:24.401Z,102.45
2018-10-11T03:43:28.487Z,137.57
2018-10-11T03:44:32.483Z,92.72
2018-10-11T03:45:51.737Z,84.03
2018-10-11T03:48:21.715Z,87.82
2018-10-11T03:49:26.278Z,94.55
2018-10-11T03:50:30.374Z,99.32
2018-10-11T03:51:34.407Z,109.30
2018-10-11T03:52:38.477Z,105.60
2018-10-11T03:53:42.514Z,98.03
2018-10-11T03:54:49.444Z,102.47
2018-10-11T03:55:54.405Z,96.87
2018-10-11T03:56:58.436Z,96.65
2018-10-11T03:58:02.490Z,88.97
2018-10-11T03:59:06.899Z,87.95
2018-10-11T04:00:11.117Z,96.47
2018-10-11T04:01:15.526Z,116.05
2018-10-11T04:02:19.570Z,146.13
2018-10-11T04:03:23.691Z,226.20
2018-10-11T04:04:27.966Z,118.00
2018-10-11T04:05:31.986Z,267.60
2018-10-11T04:06:36.130Z,161.75
2018-10-11T04:07:40.266Z,237.27
2018-10-11T04:08:44.387Z,180.45
2018-10-11T04:09:48.325Z,125.47
2018-10-11T04:10:52.338Z,106.30
2018-10-11T04:11:56.605Z,130.35
2018-10-11T04:13:00.729Z,175.55
2018-10-11T04:14:04.761Z,109.87
2018-10-11T04:15:09.274Z,254.10
2018-10-11T04:16:13.383Z,106.10
2018-10-11T04:17:17.523Z,234.70
2018-10-11T04:18:21.564Z,298.30
2018-10-11T04:19:25.659Z,316.73
2018-10-11T04:20:30.539Z,258.25
2018-10-11T04:21:34.549Z,244.85
2018-10-11T04:22:39.629Z,103.27
2018-10-11T04:23:43.690Z,194.97
2018-10-11T04:24:48.416Z,266.30
2018-10-11T04:25:52.446Z,341.12
2018-10-11T04:26:56.599Z,298.57
2018-10-11T04:31:30.817Z,175.97
2018-10-11T04:32:34.860Z,161.80
2018-10-11T04:33:38.903Z,182.53
2018-10-11T04:34:43.089Z,178.93
2018-10-11T04:35:47.223Z,166.65
2018-10-11T04:36:51.322Z,157.80
2018-10-11T04:37:55.740Z,154.40
2018-10-11T04:38:59.926Z,145.90
2018-10-11T04:40:04.105Z,160.95
2018-10-11T04:41:08.233Z,142.07
2018-10-11T04:42:17.491Z,146.47
2018-10-11T04:43:23.644Z,132.70
2018-10-11T04:44:28.078Z,132.10
2018-10-11T04:45:32.085Z,150.80
2018-10-11T04:46:36.087Z,143.27
2018-10-11T04:47:45.329Z,140.68
2018-10-11T04:48:49.491Z,132.20
2018-10-11T04:49:53.536Z,142.18
2018-10-11T04:50:57.649Z,134.57
2018-10-11T04:52:06.619Z,134.55
2018-10-11T04:53:11.368Z,130.97
2018-10-11T04:54:20.633Z,124.65
2018-10-11T04:55:24.751Z,120.97
2018-10-11T04:56:29.445Z,115.55
2018-10-11T04:57:38.363Z,125.30
2018-10-11T04:58:42.456Z,119.97
2018-10-11T04:59:46.591Z,113.28
2018-10-11T05:00:50.684Z,126.30
2018-10-11T05:01:54.827Z,114.92
2018-10-11T05:02:58.955Z,114.03
2018-10-11T05:04:03.083Z,110.25
2018-10-11T05:05:07.569Z,119.47
2018-10-11T05:06:11.747Z,110.95
2018-10-11T05:07:15.977Z,115.57
2018-10-11T05:08:20.037Z,118.00
2018-10-11T05:09:24.283Z,116.93
2018-10-11T05:10:28.486Z,113.32
2018-10-11T05:11:32.581Z,106.97
2018-10-11T05:12:37.403Z,109.63
2018-10-11T05:13:47.238Z,115.65
2018-10-11T05:14:51.879Z,113.88
2018-10-11T05:15:56.088Z,112.37
2018-10-11T05:17:00.473Z,118.40
2018-10-11T05:18:05.916Z,117.35
2018-10-11T05:19:10.767Z,111.37
2018-10-11T05:20:15.418Z,112.12
2018-10-11T05:21:19.700Z,117.00
2018-10-11T05:22:23.915Z,113.55
2018-10-11T05:23:28.207Z,113.77
2018-10-11T05:24:32.455Z,115.57
2018-10-11T05:25:36.692Z,120.57
2018-10-11T05:26:40.886Z,118.28
2018-10-11T05:27:45.223Z,118.55
2018-10-11T05:28:49.518Z,105.52
2018-10-11T05:29:53.704Z,123.92
2018-10-11T05:30:57.969Z,116.77
2018-10-11T05:32:02.221Z,98.55
2018-10-11T05:33:06.576Z,89.20
2018-10-11T05:34:10.781Z,95.97
2018-10-11T05:35:14.781Z,106.65
2018-10-11T05:36:18.961Z,110.85
2018-10-11T05:37:23.451Z,113.10
2018-10-11T05:38:27.652Z,121.22
2018-10-11T05:39:32.056Z,118.40
2018-10-11T05:40:38.191Z,107.37
2018-10-11T05:41:42.660Z,119.22
2018-10-11T05:42:47.166Z,118.35
2018-10-11T05:43:51.608Z,108.57
2018-10-11T05:45:03.846Z,114.45
2018-10-11T05:46:10.556Z,121.00
2018-10-11T05:47:15.222Z,119.30
2018-10-11T05:48:21.142Z,123.60
2018-10-11T05:49:26.413Z,118.13
2018-10-11T05:50:30.588Z,113.20
2018-10-11T05:51:35.076Z,116.15
2018-10-11T05:52:41.625Z,112.72
2018-10-11T05:53:48.318Z,115.03
2018-10-11T05:54:52.684Z,117.17
2018-10-11T05:55:57.830Z,116.67
2018-10-11T05:57:02.172Z,118.30
2018-10-11T05:58:07.357Z,119.50
2018-10-11T05:59:12.081Z,115.70
2018-10-11T06:00:16.308Z,110.08
2018-10-11T06:01:20.929Z,104.53
2018-10-11T06:02:25.645Z,114.03
2018-10-11T06:03:30.035Z,107.43
2018-10-11T06:04:34.505Z,113.32
2018-10-11T06:05:38.843Z,110.12
2018-10-11T06:06:46.370Z,111.00
2018-10-11T06:07:50.732Z,106.97
2018-10-11T06:08:56.197Z,100.12
2018-10-11T06:10:00.346Z,104.17
2018-10-11T06:11:05.118Z,97.72
2018-10-11T06:12:09.378Z,101.75
2018-10-11T06:13:14.225Z,100.15
2018-10-11T06:14:19.668Z,99.83
2018-10-11T06:15:24.346Z,103.00
2018-10-11T06:16:28.747Z,89.90
2018-10-11T06:17:33.075Z,98.07
2018-10-11T06:18:37.639Z,99.03
2018-10-11T06:19:42.138Z,96.08
2018-10-11T06:20:46.318Z,87.70
2018-10-11T06:21:50.711Z,94.52
2018-10-11T06:22:58.946Z,90.62
2018-10-11T06:24:03.087Z,88.00
2018-10-11T06:25:07.471Z,102.50
2018-10-11T06:26:12.375Z,95.97
2018-10-11T06:27:16.694Z,93.65
2018-10-11T06:28:21.030Z,89.58
2018-10-11T06:29:25.616Z,90.90
2018-10-11T06:30:31.145Z,94.37
2018-10-11T06:31:35.303Z,89.37
2018-10-11T06:32:39.660Z,83.65
2018-10-11T06:33:45.006Z,84.80
2018-10-11T06:34:49.113Z,86.10
2018-10-11T06:35:53.497Z,91.25
2018-10-11T06:36:58.667Z,85.57
2018-10-11T06:38:03.835Z,82.85
2018-10-11T06:39:09.824Z,88.72
2018-10-11T06:40:14.128Z,82.67
2018-10-11T06:41:18.631Z,82.02
2018-10-11T06:42:23.087Z,79.85
2018-10-11T06:43:27.437Z,77.97
2018-10-11T06:44:31.818Z,78.57
2018-10-11T06:45:36.133Z,81.12
2018-10-11T06:46:40.457Z,75.05
2018-10-11T06:47:46.119Z,78.70
2018-10-11T06:48:50.375Z,76.07
2018-10-11T06:49:54.730Z,82.75
2018-10-11T06:50:58.950Z,78.22
2018-10-11T06:52:03.363Z,77.10
2018-10-11T06:53:09.683Z,72.25
2018-10-11T06:54:13.767Z,77.60
2018-10-11T06:55:18.075Z,75.60
2018-10-11T06:56:22.362Z,86.97
2018-10-11T06:57:26.601Z,81.42
2018-10-11T06:58:30.821Z,73.07
2018-10-11T06:59:35.301Z,92.80
2018-10-11T07:00:39.612Z,77.85
2018-10-11T07:01:43.753Z,76.28
2018-10-11T07:02:48.019Z,76.05
2018-10-11T07:03:52.165Z,77.92
2018-10-11T07:04:56.203Z,70.83
2018-10-11T07:06:00.399Z,69.40
2018-10-11T07:07:04.655Z,67.27
2018-10-11T07:08:08.803Z,69.05
2018-10-11T07:09:17.224Z,68.97
2018-10-11T07:10:21.645Z,69.12
2018-10-11T07:11:25.681Z,70.95
2018-10-11T07:12:29.887Z,70.78
2018-10-11T07:13:39.198Z,76.70
2018-10-11T07:14:43.252Z,73.50
2018-10-11T07:15:48.427Z,72.72
2018-10-11T07:16:52.738Z,78.83
2018-10-11T07:17:56.865Z,72.37
2018-10-11T07:19:01.097Z,76.22
2018-10-11T07:20:10.505Z,80.57
2018-10-11T07:21:14.577Z,76.10
2018-10-11T07:22:18.696Z,69.00
2018-10-11T07:23:23.510Z,72.15
2018-10-11T07:24:31.892Z,78.12
2018-10-11T07:25:35.972Z,72.03
2018-10-11T07:26:39.978Z,77.82
2018-10-11T07:27:45.207Z,75.60
2018-10-11T07:28:49.229Z,71.40
2018-10-11T07:29:53.569Z,71.22
2018-10-11T07:30:57.595Z,77.55
2018-10-11T07:32:01.775Z,73.45
2018-10-11T07:33:05.995Z,76.70
2018-10-11T07:34:10.029Z,69.58
2018-10-11T07:35:14.305Z,69.85
2018-10-11T07:36:18.345Z,68.45
2018-10-11T07:37:22.442Z,73.70
2018-10-11T07:38:26.687Z,69.03
2018-10-11T07:39:30.692Z,69.72
2018-10-11T07:40:34.837Z,78.17
2018-10-11T07:41:38.839Z,72.30
2018-10-11T07:42:42.847Z,74.17
2018-10-11T07:43:47.150Z,75.52
2018-10-11T07:44:51.297Z,75.50
2018-10-11T07:45:55.687Z,76.85
2018-10-11T07:46:59.776Z,74.37
2018-10-11T07:48:03.911Z,75.37
2018-10-11T07:49:08.684Z,71.80
2018-10-11T07:50:12.882Z,75.28
2018-10-11T07:51:16.935Z,67.63
2018-10-11T07:52:20.917Z,74.25
2018-10-11T07:53:25.526Z,67.62
2018-10-11T07:54:33.959Z,74.40
2018-10-11T07:55:38.016Z,66.45
2018-10-11T07:56:42.150Z,74.95
2018-10-11T07:57:46.177Z,71.07
2018-10-11T07:58:50.244Z,69.82
2018-10-11T07:59:54.299Z,70.62
2018-10-11T08:00:58.366Z,73.12
2018-10-11T08:02:02.815Z,76.07
2018-10-11T08:03:06.983Z,73.15
2018-10-11T08:04:11.006Z,69.03
2018-10-11T08:05:15.055Z,68.60
2018-10-11T08:06:19.104Z,72.72
2018-10-11T08:07:23.243Z,69.45
2018-10-11T08:08:27.954Z,75.90
2018-10-11T08:09:31.922Z,79.85
2018-10-11T08:10:36.097Z,67.00
2018-10-11T08:11:40.168Z,62.00
2018-10-11T08:12:44.127Z,70.17
2018-10-11T08:13:48.137Z,63.35
2018-10-11T08:14:52.163Z,64.97
2018-10-11T08:15:56.340Z,63.10
2018-10-11T08:17:00.548Z,61.95
2018-10-11T08:18:04.811Z,87.37
2018-10-11T08:19:09.266Z,67.85
2018-10-11T08:20:13.262Z,66.57
2018-10-11T08:21:17.270Z,63.20
2018-10-11T08:22:21.359Z,63.92
2018-10-11T08:23:25.547Z,63.55
2018-10-11T08:24:29.721Z,60.92
2018-10-11T08:25:34.189Z,66.35
2018-10-11T08:26:37.882Z,65.00
2018-10-11T08:27:41.922Z,64.37
2018-10-11T08:28:45.959Z,61.98
2018-10-11T08:29:49.950Z,66.22
2018-10-11T08:30:54.641Z,69.50
2018-10-11T08:32:05.197Z,63.00
2018-10-11T08:33:09.434Z,61.10
2018-10-11T08:34:13.660Z,60.73
2018-10-11T08:35:17.695Z,61.42
2018-10-11T08:36:21.905Z,74.07
2018-10-11T08:37:25.939Z,60.35
2018-10-11T08:38:30.209Z,57.48
2018-10-11T08:39:34.418Z,59.40
2018-10-11T08:40:38.425Z,59.27
2018-10-11T08:41:42.383Z,57.13
2018-10-11T08:42:48.319Z,62.65
2018-10-11T08:43:52.468Z,66.47
2018-10-11T08:44:56.584Z,60.15
2018-10-11T08:46:01.004Z,58.80
2018-10-11T08:47:05.122Z,58.78
2018-10-11T08:48:09.789Z,55.63
2018-10-11T08:49:14.162Z,62.75
2018-10-11T08:50:18.283Z,52.23
2018-10-11T08:51:22.217Z,54.70
2018-10-11T08:52:26.295Z,62.60
2018-10-11T08:53:30.322Z,59.48
2018-10-11T08:54:39.631Z,56.80
2018-10-11T08:55:43.683Z,54.70
2018-10-11T08:56:48.414Z,56.23
2018-10-11T08:57:52.546Z,48.75
2018-10-11T08:58:56.614Z,53.28
2018-10-11T09:00:00.576Z,48.68
2018-10-11T09:01:04.659Z,49.95
2018-10-11T09:02:08.767Z,44.23
2018-10-11T09:03:13.073Z,50.28
2018-10-11T09:04:17.542Z,46.42
2018-10-11T09:05:21.575Z,45.80
2018-10-11T09:06:25.927Z,47.48
2018-10-11T09:07:30.109Z,51.30
2018-10-11T09:08:34.504Z,54.00
2018-10-11T09:09:38.730Z,54.45
2018-10-11T09:10:42.832Z,53.40
2018-10-11T09:11:46.817Z,56.08
2018-10-11T09:12:51.064Z,49.58
2018-10-11T09:13:55.088Z,48.45
2018-10-11T09:15:01.062Z,52.98
2018-10-11T09:16:05.024Z,44.83
2018-10-11T09:17:09.191Z,48.28
2018-10-11T09:18:13.350Z,45.73
2018-10-11T09:19:17.463Z,50.28
2018-10-11T09:20:21.693Z,45.90
2018-10-11T09:21:25.876Z,45.75
2018-10-11T09:22:30.052Z,43.00
2018-10-11T09:23:34.089Z,41.23
2018-10-11T09:24:38.168Z,39.53
2018-10-11T09:25:43.181Z,40.58
2018-10-11T09:26:47.249Z,36.30
2018-10-11T09:27:51.527Z,43.70
2018-10-11T09:28:55.551Z,43.20
2018-10-11T09:29:59.845Z,42.08
2018-10-11T09:31:03.840Z,48.08
2018-10-11T09:32:07.982Z,45.45
2018-10-11T09:33:12.257Z,42.30
2018-10-11T09:34:16.381Z,43.45
2018-10-11T09:35:21.863Z,44.85
2018-10-11T09:36:25.936Z,45.85
2018-10-11T09:37:29.881Z,46.28
2018-10-11T09:38:34.167Z,45.73
2018-10-11T09:39:38.820Z,46.73
2018-10-11T09:40:43.006Z,48.40
2018-10-11T09:41:47.197Z,70.25
2018-10-11T09:42:51.307Z,43.87
2018-10-11T09:43:55.451Z,50.00
2018-10-11T09:44:59.545Z,49.42
2018-10-11T09:46:03.599Z,47.27
2018-10-11T09:47:08.267Z,55.35
2018-10-11T09:48:12.348Z,47.78
2018-10-11T09:49:16.417Z,41.20
2018-10-11T09:50:20.537Z,44.08
2018-10-11T09:51:27.208Z,42.43
2018-10-11T09:52:31.350Z,40.55
2018-10-11T09:53:35.420Z,50.12
2018-10-11T09:54:39.494Z,56.08
2018-10-11T09:55:43.531Z,51.35
2018-10-11T09:57:24.984Z,53.13
2018-10-11T09:58:29.305Z,36.77
2018-10-11T09:59:33.313Z,49.70
2018-10-11T10:00:42.478Z,43.15
2018-10-11T10:01:46.997Z,44.23
2018-10-11T10:02:51.516Z,42.50
2018-10-11T10:03:55.557Z,39.85
2018-10-11T10:05:01.907Z,41.88
2018-10-11T10:06:06.064Z,36.48
2018-10-11T10:07:15.671Z,50.33
2018-10-11T10:08:19.834Z,43.78
2018-10-11T10:09:24.157Z,45.85
2018-10-11T10:10:28.461Z,40.30
2018-10-11T10:11:32.500Z,39.45
2018-10-11T10:12:36.922Z,40.20
2018-10-11T10:13:40.969Z,39.67
2018-10-11T10:14:45.730Z,50.15
2018-10-11T10:15:49.877Z,40.07
2018-10-11T10:16:54.029Z,43.33
2018-10-11T10:17:58.152Z,43.35
2018-10-11T10:19:02.134Z,39.63
2018-10-11T10:20:07.001Z,40.55
2018-10-11T10:21:16.436Z,35.48
2018-10-11T10:22:20.438Z,39.25
2018-10-11T10:23:24.836Z,37.60
2018-10-11T10:24:29.155Z,47.25
2018-10-11T10:25:33.203Z,38.88
2018-10-11T10:26:37.321Z,41.95
2018-10-11T10:27:41.625Z,40.60
2018-10-11T10:28:45.702Z,38.65
2018-10-11T10:29:49.872Z,38.30
2018-10-11T10:30:59.421Z,44.08
2018-10-11T10:32:03.897Z,39.10
2018-10-11T10:33:08.394Z,43.80
2018-10-11T10:34:12.970Z,44.13
2018-10-11T10:35:17.094Z,44.38
2018-10-11T10:36:21.267Z,42.38
2018-10-11T10:37:30.738Z,41.10
2018-10-11T10:38:34.890Z,36.38
2018-10-11T10:39:38.984Z,42.08
2018-10-11T10:40:43.167Z,41.08
2018-10-11T10:41:47.507Z,38.95
2018-10-11T10:42:51.661Z,40.10
2018-10-11T10:44:01.403Z,43.95
2018-10-11T10:45:06.199Z,43.20
2018-10-11T10:46:10.314Z,37.45
2018-10-11T10:47:14.459Z,44.83
2018-10-11T10:48:18.421Z,49.03
2018-10-11T10:49:22.483Z,38.55
2018-10-11T10:50:26.628Z,40.10
2018-10-11T10:51:31.043Z,45.33
2018-10-11T10:52:35.153Z,41.58
2018-10-11T10:53:39.142Z,42.88
2018-10-11T10:54:43.258Z,38.60
2018-10-11T10:55:47.315Z,39.08
2018-10-11T10:56:52.154Z,38.70
2018-10-11T10:57:56.300Z,40.10
2018-10-11T10:59:00.364Z,39.67
2018-10-11T11:00:04.659Z,37.05
2018-10-11T11:01:09.093Z,36.40
2018-10-11T11:02:13.099Z,45.48
2018-10-11T11:03:17.382Z,42.13
2018-10-11T11:04:21.956Z,39.38
2018-10-11T11:05:26.097Z,37.58
2018-10-11T11:06:30.103Z,39.67
2018-10-11T11:07:34.152Z,37.03
2018-10-11T11:08:38.167Z,45.30
2018-10-11T11:09:42.229Z,40.58
2018-10-11T11:10:46.346Z,41.40
2018-10-11T11:11:50.442Z,39.33
2018-10-11T11:12:54.583Z,38.57
2018-10-11T11:13:58.522Z,39.20
2018-10-11T11:15:02.619Z,38.07
2018-10-11T11:16:06.938Z,44.97
2018-10-11T11:17:11.085Z,40.50
2018-10-11T11:18:15.128Z,36.77
2018-10-11T11:19:19.137Z,36.53
2018-10-11T11:20:23.622Z,39.80
2018-10-11T11:21:28.193Z,37.47
2018-10-11T11:22:32.311Z,38.70
2018-10-11T11:23:36.311Z,34.63
2018-10-11T11:24:40.244Z,35.37
2018-10-11T11:25:44.199Z,39.07
2018-10-11T11:26:48.324Z,32.43
2018-10-11T11:27:52.378Z,38.00
2018-10-11T11:28:56.693Z,34.50
2018-10-11T11:30:00.733Z,35.93
2018-10-11T11:31:10.251Z,35.33
2018-10-11T11:32:14.468Z,38.07
2018-10-11T11:33:18.549Z,74.00
2018-10-11T11:34:22.925Z,36.33
2018-10-11T11:35:26.987Z,40.23
2018-10-11T11:36:31.016Z,33.20
2018-10-11T11:37:35.228Z,35.03
2018-10-11T11:38:39.143Z,34.23
2018-10-11T11:39:43.335Z,35.77
2018-10-11T11:40:47.282Z,33.70
2018-10-11T11:41:51.403Z,31.33
2018-10-11T11:42:55.526Z,34.70
2018-10-11T11:43:59.536Z,32.07
2018-10-11T11:45:03.508Z,41.27
2018-10-11T11:46:08.099Z,32.43
2018-10-11T11:47:12.098Z,34.87
2018-10-11T11:48:16.146Z,30.30
2018-10-11T11:49:20.096Z,29.37
2018-10-11T11:50:24.180Z,31.23
2018-10-11T11:51:28.344Z,31.67
2018-10-11T11:52:32.303Z,30.40
2018-10-11T11:53:37.688Z,35.40
2018-10-11T11:54:42.093Z,29.42
2018-10-11T11:55:46.079Z,31.47
2018-10-11T11:56:50.879Z,30.77
2018-10-11T11:57:55.069Z,36.20
2018-10-11T11:58:59.168Z,32.97
2018-10-11T12:00:03.138Z,28.53
2018-10-11T12:01:07.865Z,31.50
2018-10-11T12:02:11.844Z,33.33
2018-10-11T12:03:15.861Z,41.43
2018-10-11T12:04:20.184Z,37.93
2018-10-11T12:05:24.381Z,33.20
2018-10-11T12:06:28.392Z,37.47
2018-10-11T12:07:32.464Z,35.03
2018-10-11T12:08:37.071Z,33.40
2018-10-11T12:09:41.137Z,34.93
2018-10-11T12:10:45.257Z,30.67
2018-10-11T12:11:49.342Z,28.40
2018-10-11T12:12:57.660Z,32.17
2018-10-11T12:14:03.899Z,27.10
2018-10-11T12:15:08.419Z,28.83
2018-10-11T12:16:12.585Z,29.03
2018-10-11T12:17:16.784Z,27.47
2018-10-11T12:18:21.055Z,27.07
2018-10-11T12:19:25.252Z,31.33
2018-10-11T12:20:31.701Z,35.57
2018-10-11T12:21:35.998Z,32.03
2018-10-11T12:22:40.157Z,29.70
2018-10-11T12:23:44.360Z,26.23
2018-10-11T12:24:48.597Z,30.30
2018-10-11T12:25:52.819Z,34.77
2018-10-11T12:26:57.774Z,37.07
2018-10-11T12:28:01.957Z,30.80
2018-10-11T12:29:06.674Z,38.30
2018-10-11T12:30:10.668Z,27.00
2018-10-11T12:31:14.863Z,24.40
2018-10-11T12:32:19.059Z,25.13
2018-10-11T12:33:23.103Z,28.03
2018-10-11T12:34:27.581Z,27.07
2018-10-11T12:35:32.078Z,26.03
2018-10-11T12:36:36.369Z,30.43
2018-10-11T12:37:40.565Z,24.27
2018-10-11T12:38:44.800Z,29.60
2018-10-11T12:39:49.150Z,26.00
2018-10-11T12:40:53.464Z,24.80
2018-10-11T12:41:57.725Z,31.40
2018-10-11T12:43:01.833Z,35.30
2018-10-11T12:44:06.097Z,36.23
2018-10-11T12:45:11.195Z,25.97
2018-10-11T12:46:15.858Z,23.40
2018-10-11T12:47:20.042Z,25.57
2018-10-11T12:48:24.188Z,23.27
2018-10-11T12:49:28.489Z,31.40
2018-10-11T12:50:32.575Z,30.17
2018-10-11T12:51:37.061Z,30.20
2018-10-11T12:52:41.717Z,23.33
2018-10-11T12:53:48.302Z,28.30
2018-10-11T12:54:50.247Z,81.30
2018-10-11T12:55:54.512Z,44.83
2018-10-11T12:56:58.930Z,34.90
2018-10-11T12:58:03.463Z,28.07
2018-10-11T12:59:07.535Z,28.53
2018-10-11T13:00:13.747Z,25.80
2018-10-11T13:01:21.125Z,27.50
2018-10-11T13:02:22.063Z,24.90
2018-10-11T13:03:26.523Z,27.40
2018-10-11T13:04:30.822Z,25.47
2018-10-11T13:05:35.019Z,23.67
2018-10-11T13:06:39.112Z,28.80
2018-10-11T13:07:43.527Z,24.33
2018-10-11T13:08:47.665Z,30.20
2018-10-11T13:09:51.765Z,34.80
2018-10-11T13:10:55.858Z,23.30
2018-10-11T13:12:00.021Z,26.60
2018-10-11T13:13:04.257Z,27.50
2018-10-11T13:14:08.370Z,25.03
2018-10-11T13:15:12.457Z,29.60
2018-10-11T13:16:16.534Z,32.60
2018-10-11T13:17:20.538Z,25.70
2018-10-11T13:18:24.604Z,23.37
2018-10-11T13:19:28.845Z,28.17
2018-10-11T13:20:32.860Z,23.97
2018-10-11T13:21:37.355Z,24.27
2018-10-11T13:22:41.483Z,26.97
2018-10-11T13:23:45.707Z,20.07
2018-10-11T13:24:49.850Z,29.47
2018-10-11T13:25:53.821Z,27.17
2018-10-11T13:26:57.909Z,23.63
2018-10-11T13:28:02.077Z,23.23
2018-10-11T13:29:06.122Z,24.83
2018-10-11T13:30:10.295Z,26.73
2018-10-11T13:31:14.302Z,23.57
2018-10-11T13:32:18.282Z,23.03
2018-10-11T13:33:22.299Z,21.13
2018-10-11T13:34:26.347Z,22.63
2018-10-11T13:35:30.655Z,26.20
2018-10-11T13:36:34.668Z,23.43
2018-10-11T13:37:38.819Z,30.60
2018-10-11T13:38:42.782Z,23.13
2018-10-11T13:39:52.025Z,23.40
2018-10-11T13:40:54.301Z,22.83
2018-10-11T13:41:55.306Z,22.43
2018-10-11T13:43:00.349Z,34.27
2018-10-11T13:44:04.623Z,19.53
2018-10-11T13:45:08.719Z,29.20
2018-10-11T13:46:12.850Z,23.03
2018-10-11T13:47:16.954Z,21.50
2018-10-11T13:48:21.305Z,22.80
2018-10-11T13:49:25.344Z,44.30
2018-10-11T13:50:29.444Z,27.30
2018-10-11T13:51:33.466Z,23.17
2018-10-11T13:52:37.530Z,16.57
2018-10-11T13:53:42.862Z,18.95
2018-10-11T13:54:46.003Z,24.73